ISR400 LLBG-LCLK
Flight info
| Callsign | ISR400 |
|---|---|
| Flight time | 0h 37m |
| Altitude | 19000 |
| Route | DAFNA DCT VELOX N131 EMEDA |
| Aircraft | A20N/M-SDE2E3FGHIRWXY/LB1 |
Departure
| Time | 2026-05-07 20:34 |
|---|---|
| Airport | Ben Gurion International Airport (LLBG) |
Arrival
| Time | 2026-05-07 21:12 |
|---|---|
| Airport | Larnaca International Airport (LCLK) |
| Time | Latitude | Longitude | Altitude | Speed | Heading |
|---|---|---|---|---|---|
| 2026-05-07 20:11 | 32.00510 | 34.87472 | 123 ft | 0 kts | 272° |
| 2026-05-07 20:19 | 32.00510 | 34.87488 | 118 ft | 4 kts | 272° |
| 2026-05-07 20:20 | 32.00509 | 34.87520 | 119 ft | 4 kts | 272° |
| 2026-05-07 20:20 | 32.00508 | 34.87552 | 120 ft | 4 kts | 271° |
| 2026-05-07 20:20 | 32.00507 | 34.87585 | 120 ft | 4 kts | 271° |
| 2026-05-07 20:20 | 32.00506 | 34.87617 | 120 ft | 4 kts | 272° |
| 2026-05-07 20:21 | 32.00505 | 34.87648 | 119 ft | 4 kts | 275° |
| 2026-05-07 20:21 | 32.00501 | 34.87675 | 119 ft | 3 kts | 287° |
| 2026-05-07 20:21 | 32.00493 | 34.87692 | 120 ft | 2 kts | 322° |
| 2026-05-07 20:21 | 32.00483 | 34.87699 | 118 ft | 2 kts | 339° |
| 2026-05-07 20:22 | 32.00487 | 34.87698 | 121 ft | 4 kts | 345° |
| 2026-05-07 20:22 | 32.00491 | 34.87697 | 120 ft | 0 kts | 346° |
| 2026-05-07 20:24 | 32.00508 | 34.87692 | 121 ft | 14 kts | 346° |
| 2026-05-07 20:24 | 32.00595 | 34.87705 | 119 ft | 13 kts | 30° |
| 2026-05-07 20:24 | 32.00630 | 34.87769 | 123 ft | 7 kts | 101° |
| 2026-05-07 20:24 | 32.00609 | 34.87817 | 123 ft | 7 kts | 120° |
| 2026-05-07 20:25 | 32.00586 | 34.87868 | 121 ft | 7 kts | 108° |
| 2026-05-07 20:25 | 32.00592 | 34.87914 | 122 ft | 3 kts | 59° |
| 2026-05-07 20:25 | 32.00597 | 34.87920 | 119 ft | 0 kts | 47° |
| 2026-05-07 20:25 | 32.00601 | 34.87925 | 120 ft | 1 kts | 45° |
| 2026-05-07 20:26 | 32.00610 | 34.87933 | 118 ft | 3 kts | 37° |
| 2026-05-07 20:26 | 32.00639 | 34.87956 | 122 ft | 0 kts | 32° |
| 2026-05-07 20:26 | 32.00640 | 34.87956 | 122 ft | 0 kts | 32° |
| 2026-05-07 20:27 | 32.00641 | 34.87957 | 121 ft | 0 kts | 32° |
| 2026-05-07 20:27 | 32.00644 | 34.87959 | 121 ft | 1 kts | 32° |
| 2026-05-07 20:29 | 32.00654 | 34.87967 | 120 ft | 9 kts | 32° |
| 2026-05-07 20:29 | 32.00737 | 34.88026 | 121 ft | 15 kts | 32° |
| 2026-05-07 20:29 | 32.00824 | 34.88090 | 119 ft | 15 kts | 31° |
| 2026-05-07 20:30 | 32.00915 | 34.88156 | 121 ft | 16 kts | 31° |
| 2026-05-07 20:30 | 32.01010 | 34.88226 | 121 ft | 16 kts | 31° |
| 2026-05-07 20:30 | 32.01110 | 34.88297 | 121 ft | 17 kts | 31° |
| 2026-05-07 20:30 | 32.01212 | 34.88371 | 122 ft | 17 kts | 32° |
| 2026-05-07 20:31 | 32.01309 | 34.88457 | 123 ft | 18 kts | 41° |
| 2026-05-07 20:31 | 32.01393 | 34.88571 | 121 ft | 19 kts | 54° |
| 2026-05-07 20:31 | 32.01458 | 34.88705 | 122 ft | 19 kts | 67° |
| 2026-05-07 20:31 | 32.01498 | 34.88856 | 123 ft | 20 kts | 80° |
| 2026-05-07 20:32 | 32.01522 | 34.89018 | 121 ft | 20 kts | 78° |
| 2026-05-07 20:32 | 32.01545 | 34.89134 | 123 ft | 12 kts | 63° |
| 2026-05-07 20:32 | 32.01596 | 34.89160 | 122 ft | 8 kts | 357° |
| 2026-05-07 20:32 | 32.01654 | 34.89150 | 120 ft | 9 kts | 350° |
| 2026-05-07 20:33 | 32.01722 | 34.89129 | 120 ft | 11 kts | 328° |
| 2026-05-07 20:33 | 32.01742 | 34.89068 | 122 ft | 0 kts | 263° |
| 2026-05-07 20:33 | 32.01738 | 34.89034 | 123 ft | 24 kts | 263° |
| 2026-05-07 20:34 | 32.01655 | 34.88489 | 124 ft | 112 kts | 259° |
| 2026-05-07 20:34 | 32.01452 | 34.87278 | 380 ft | 172 kts | 260° |
| 2026-05-07 20:34 | 32.01215 | 34.85879 | 1361 ft | 179 kts | 262° |
| 2026-05-07 20:34 | 32.00926 | 34.84347 | 2138 ft | 201 kts | 261° |
| 2026-05-07 20:35 | 32.00599 | 34.82709 | 2961 ft | 209 kts | 261° |
| 2026-05-07 20:35 | 32.00305 | 34.81263 | 3668 ft | 217 kts | 259° |
| 2026-05-07 20:35 | 31.99950 | 34.79522 | 4630 ft | 224 kts | 258° |
| 2026-05-07 20:35 | 31.99565 | 34.77629 | 5120 ft | 253 kts | 257° |
| 2026-05-07 20:36 | 31.99295 | 34.75460 | 5462 ft | 282 kts | 271° |
| 2026-05-07 20:36 | 31.99660 | 34.73086 | 5805 ft | 309 kts | 287° |
| 2026-05-07 20:36 | 32.00396 | 34.70602 | 6141 ft | 333 kts | 290° |
| 2026-05-07 20:36 | 32.01243 | 34.67967 | 6459 ft | 354 kts | 290° |
| 2026-05-07 20:37 | 32.02135 | 34.65179 | 6745 ft | 372 kts | 290° |
| 2026-05-07 20:37 | 32.02704 | 34.62186 | 7288 ft | 378 kts | 277° |
| 2026-05-07 20:37 | 32.02925 | 34.59098 | 8018 ft | 378 kts | 274° |
| 2026-05-07 20:37 | 32.03087 | 34.56002 | 8719 ft | 380 kts | 273° |
| 2026-05-07 20:38 | 32.03243 | 34.52874 | 9336 ft | 384 kts | 273° |
| 2026-05-07 20:38 | 32.03643 | 34.49769 | 9996 ft | 387 kts | 287° |
| 2026-05-07 20:38 | 32.04901 | 34.46968 | 10568 ft | 391 kts | 307° |
| 2026-05-07 20:38 | 32.06933 | 34.44836 | 11122 ft | 396 kts | 327° |
| 2026-05-07 20:39 | 32.09426 | 34.43657 | 11654 ft | 403 kts | 346° |
| 2026-05-07 20:39 | 32.12202 | 34.43513 | 12185 ft | 410 kts | 5° |
| 2026-05-07 20:39 | 32.14982 | 34.44353 | 12735 ft | 415 kts | 15° |
| 2026-05-07 20:39 | 32.17756 | 34.45351 | 13247 ft | 418 kts | 13° |
| 2026-05-07 20:40 | 32.20556 | 34.46149 | 13781 ft | 420 kts | 9° |
| 2026-05-07 20:40 | 32.23432 | 34.46785 | 14264 ft | 422 kts | 7° |
| 2026-05-07 20:40 | 32.26340 | 34.47313 | 14775 ft | 423 kts | 6° |
| 2026-05-07 20:40 | 32.29266 | 34.47654 | 15282 ft | 423 kts | 358° |
| 2026-05-07 20:41 | 32.32166 | 34.47171 | 15803 ft | 421 kts | 341° |
| 2026-05-07 20:41 | 32.34776 | 34.45654 | 16333 ft | 420 kts | 323° |
| 2026-05-07 20:41 | 32.36991 | 34.43408 | 16860 ft | 421 kts | 315° |
| 2026-05-07 20:41 | 32.39086 | 34.40967 | 17322 ft | 424 kts | 314° |
| 2026-05-07 20:42 | 32.41174 | 34.38487 | 17778 ft | 426 kts | 314° |
| 2026-05-07 20:42 | 32.43276 | 34.35997 | 18245 ft | 429 kts | 314° |
| 2026-05-07 20:42 | 32.45400 | 34.33495 | 18656 ft | 431 kts | 315° |
| 2026-05-07 20:42 | 32.47538 | 34.30983 | 19051 ft | 433 kts | 315° |
| 2026-05-07 20:43 | 32.49686 | 34.28463 | 19274 ft | 435 kts | 315° |
| 2026-05-07 20:43 | 32.51850 | 34.25956 | 19159 ft | 435 kts | 317° |
| 2026-05-07 20:43 | 32.54312 | 34.23861 | 19093 ft | 439 kts | 331° |
| 2026-05-07 20:43 | 32.57189 | 34.22638 | 19107 ft | 441 kts | 344° |
| 2026-05-07 20:44 | 32.60208 | 34.21973 | 19105 ft | 442 kts | 350° |
| 2026-05-07 20:44 | 32.63273 | 34.21589 | 19094 ft | 443 kts | 353° |
| 2026-05-07 20:44 | 32.66304 | 34.21330 | 19095 ft | 443 kts | 354° |
| 2026-05-07 20:44 | 32.69382 | 34.21095 | 19098 ft | 443 kts | 354° |
| 2026-05-07 20:45 | 32.72463 | 34.20841 | 19100 ft | 443 kts | 354° |
| 2026-05-07 20:45 | 32.75535 | 34.20555 | 19100 ft | 443 kts | 353° |
| 2026-05-07 20:45 | 32.78609 | 34.20239 | 19096 ft | 443 kts | 353° |
| 2026-05-07 20:45 | 32.81675 | 34.19903 | 19103 ft | 443 kts | 353° |
| 2026-05-07 20:46 | 32.84744 | 34.19554 | 19100 ft | 443 kts | 353° |
| 2026-05-07 20:46 | 32.87806 | 34.19201 | 19100 ft | 442 kts | 352° |
| 2026-05-07 20:46 | 32.90876 | 34.18845 | 19098 ft | 442 kts | 352° |
| 2026-05-07 20:46 | 32.93939 | 34.18490 | 19105 ft | 442 kts | 352° |
| 2026-05-07 20:47 | 32.97001 | 34.18137 | 19108 ft | 442 kts | 353° |
| 2026-05-07 20:47 | 33.00064 | 34.17784 | 19108 ft | 442 kts | 352° |
| 2026-05-07 20:47 | 33.03128 | 34.17432 | 19107 ft | 442 kts | 353° |
| 2026-05-07 20:47 | 33.06191 | 34.17080 | 19107 ft | 442 kts | 353° |
| 2026-05-07 20:48 | 33.09252 | 34.16728 | 19107 ft | 442 kts | 353° |
| 2026-05-07 20:48 | 33.12281 | 34.16380 | 19111 ft | 442 kts | 353° |
| 2026-05-07 20:48 | 33.15351 | 34.16027 | 19104 ft | 442 kts | 353° |
| 2026-05-07 20:48 | 33.18414 | 34.15675 | 19107 ft | 442 kts | 353° |
| 2026-05-07 20:49 | 33.21472 | 34.15322 | 19104 ft | 442 kts | 353° |
| 2026-05-07 20:49 | 33.24532 | 34.14969 | 19104 ft | 442 kts | 353° |
| 2026-05-07 20:49 | 33.27591 | 34.14617 | 19107 ft | 442 kts | 353° |
| 2026-05-07 20:49 | 33.30654 | 34.14263 | 19112 ft | 442 kts | 353° |
| 2026-05-07 20:50 | 33.33715 | 34.13909 | 19115 ft | 442 kts | 353° |
| 2026-05-07 20:50 | 33.36776 | 34.13555 | 19111 ft | 442 kts | 352° |
| 2026-05-07 20:50 | 33.39837 | 34.13201 | 19111 ft | 442 kts | 353° |
| 2026-05-07 20:50 | 33.42859 | 34.12851 | 19098 ft | 442 kts | 352° |
| 2026-05-07 20:51 | 33.45919 | 34.12496 | 19104 ft | 442 kts | 352° |
| 2026-05-07 20:51 | 33.48979 | 34.12142 | 19109 ft | 442 kts | 352° |
| 2026-05-07 20:51 | 33.52040 | 34.11786 | 19107 ft | 442 kts | 352° |
| 2026-05-07 20:51 | 33.55098 | 34.11431 | 19113 ft | 442 kts | 352° |
| 2026-05-07 20:52 | 33.58156 | 34.11076 | 19113 ft | 442 kts | 352° |
| 2026-05-07 20:52 | 33.61179 | 34.10726 | 18791 ft | 430 kts | 352° |
| 2026-05-07 20:52 | 33.64132 | 34.10384 | 18114 ft | 421 kts | 352° |
| 2026-05-07 20:52 | 33.66992 | 34.10053 | 17745 ft | 404 kts | 352° |
| 2026-05-07 20:53 | 33.69410 | 34.09774 | 17478 ft | 390 kts | 353° |
| 2026-05-07 20:53 | 33.72030 | 34.09470 | 17201 ft | 375 kts | 352° |
| 2026-05-07 20:53 | 33.74579 | 34.09173 | 16946 ft | 360 kts | 353° |
| 2026-05-07 20:53 | 33.77025 | 34.08887 | 16732 ft | 346 kts | 352° |
| 2026-05-07 20:54 | 33.79375 | 34.08611 | 16503 ft | 333 kts | 352° |
| 2026-05-07 20:54 | 33.81655 | 34.08138 | 15772 ft | 335 kts | 345° |
| 2026-05-07 20:54 | 33.83930 | 34.07335 | 14769 ft | 347 kts | 341° |
| 2026-05-07 20:54 | 33.86261 | 34.06401 | 13712 ft | 359 kts | 341° |
| 2026-05-07 20:55 | 33.88660 | 34.05409 | 12518 ft | 369 kts | 341° |
| 2026-05-07 20:55 | 33.91118 | 34.04384 | 11347 ft | 377 kts | 341° |
| 2026-05-07 20:55 | 33.93622 | 34.03336 | 10224 ft | 383 kts | 341° |
| 2026-05-07 20:55 | 33.96143 | 34.02281 | 9190 ft | 382 kts | 341° |
| 2026-05-07 20:56 | 33.98643 | 34.01232 | 8233 ft | 378 kts | 341° |
| 2026-05-07 20:56 | 34.01101 | 34.00201 | 7546 ft | 368 kts | 342° |
| 2026-05-07 20:56 | 34.03466 | 33.99208 | 7207 ft | 349 kts | 342° |
| 2026-05-07 20:56 | 34.05653 | 33.98288 | 7117 ft | 325 kts | 342° |
| 2026-05-07 20:57 | 34.07705 | 33.97424 | 7121 ft | 300 kts | 342° |
| 2026-05-07 20:57 | 34.09608 | 33.96623 | 7122 ft | 280 kts | 342° |
| 2026-05-07 20:57 | 34.11418 | 33.95862 | 7121 ft | 273 kts | 342° |
| 2026-05-07 20:57 | 34.13217 | 33.95107 | 7120 ft | 274 kts | 342° |
| 2026-05-07 20:58 | 34.15022 | 33.94348 | 7115 ft | 275 kts | 342° |
| 2026-05-07 20:58 | 34.16826 | 33.93590 | 7114 ft | 275 kts | 342° |
| 2026-05-07 20:58 | 34.18630 | 33.92830 | 7113 ft | 275 kts | 342° |
| 2026-05-07 20:58 | 34.20436 | 33.92069 | 7115 ft | 275 kts | 342° |
| 2026-05-07 20:59 | 34.22242 | 33.91308 | 7093 ft | 275 kts | 342° |
| 2026-05-07 20:59 | 34.24046 | 33.90547 | 7114 ft | 275 kts | 342° |
| 2026-05-07 20:59 | 34.25853 | 33.89783 | 6991 ft | 274 kts | 342° |
| 2026-05-07 20:59 | 34.27669 | 33.89017 | 6448 ft | 278 kts | 342° |
| 2026-05-07 21:00 | 34.29474 | 33.88253 | 6163 ft | 271 kts | 342° |
| 2026-05-07 21:00 | 34.31242 | 33.87505 | 6121 ft | 269 kts | 342° |
| 2026-05-07 21:00 | 34.33015 | 33.86757 | 6115 ft | 270 kts | 342° |
| 2026-05-07 21:00 | 34.34786 | 33.86008 | 6121 ft | 270 kts | 342° |
| 2026-05-07 21:01 | 34.36538 | 33.85267 | 6119 ft | 270 kts | 342° |
| 2026-05-07 21:01 | 34.38314 | 33.84515 | 6106 ft | 271 kts | 342° |
| 2026-05-07 21:01 | 34.40070 | 33.83771 | 6121 ft | 271 kts | 342° |
| 2026-05-07 21:01 | 34.41850 | 33.83016 | 6119 ft | 270 kts | 342° |
| 2026-05-07 21:02 | 34.43622 | 33.82265 | 6119 ft | 270 kts | 342° |
| 2026-05-07 21:02 | 34.45394 | 33.81514 | 6122 ft | 270 kts | 342° |
| 2026-05-07 21:02 | 34.47170 | 33.80760 | 6121 ft | 270 kts | 342° |
| 2026-05-07 21:02 | 34.48939 | 33.79983 | 6121 ft | 270 kts | 342° |
| 2026-05-07 21:03 | 34.50700 | 33.79191 | 6120 ft | 270 kts | 342° |
| 2026-05-07 21:03 | 34.51864 | 33.78666 | 6121 ft | 270 kts | 342° |
| 2026-05-07 21:03 | 34.53622 | 33.77870 | 6121 ft | 269 kts | 342° |
| 2026-05-07 21:03 | 34.55376 | 33.77075 | 6122 ft | 269 kts | 342° |
| 2026-05-07 21:04 | 34.57116 | 33.76235 | 6122 ft | 270 kts | 336° |
| 2026-05-07 21:04 | 34.58652 | 33.74923 | 5767 ft | 275 kts | 315° |
| 2026-05-07 21:04 | 34.59594 | 33.72894 | 5291 ft | 280 kts | 287° |
| 2026-05-07 21:04 | 34.59715 | 33.70569 | 5147 ft | 277 kts | 268° |
| 2026-05-07 21:05 | 34.59574 | 33.68231 | 5127 ft | 279 kts | 264° |
| 2026-05-07 21:05 | 34.59282 | 33.65893 | 5120 ft | 280 kts | 263° |
| 2026-05-07 21:05 | 34.59073 | 33.63542 | 5126 ft | 280 kts | 268° |
| 2026-05-07 21:05 | 34.59022 | 33.61188 | 5120 ft | 279 kts | 273° |
| 2026-05-07 21:06 | 34.59148 | 33.58838 | 5116 ft | 278 kts | 279° |
| 2026-05-07 21:06 | 34.59551 | 33.56557 | 5121 ft | 276 kts | 289° |
| 2026-05-07 21:06 | 34.60267 | 33.54406 | 5116 ft | 274 kts | 300° |
| 2026-05-07 21:06 | 34.61267 | 33.52446 | 4787 ft | 274 kts | 309° |
| 2026-05-07 21:07 | 34.62535 | 33.50751 | 4343 ft | 270 kts | 320° |
| 2026-05-07 21:07 | 34.63990 | 33.49388 | 4233 ft | 261 kts | 329° |
| 2026-05-07 21:07 | 34.65566 | 33.48356 | 4217 ft | 261 kts | 339° |
| 2026-05-07 21:07 | 34.67278 | 33.47642 | 4214 ft | 260 kts | 348° |
| 2026-05-07 21:08 | 34.69053 | 33.47283 | 4217 ft | 258 kts | 357° |
| 2026-05-07 21:08 | 34.70848 | 33.47286 | 4218 ft | 258 kts | 6° |
| 2026-05-07 21:08 | 34.72611 | 33.47645 | 4215 ft | 257 kts | 15° |
| 2026-05-07 21:08 | 34.74283 | 33.48343 | 4211 ft | 245 kts | 24° |
| 2026-05-07 21:09 | 34.75751 | 33.49285 | 3972 ft | 238 kts | 32° |
| 2026-05-07 21:09 | 34.77080 | 33.50465 | 3670 ft | 231 kts | 38° |
| 2026-05-07 21:09 | 34.78292 | 33.51684 | 3407 ft | 221 kts | 39° |
| 2026-05-07 21:09 | 34.79446 | 33.52868 | 2959 ft | 215 kts | 39° |
| 2026-05-07 21:10 | 34.80575 | 33.54068 | 2255 ft | 217 kts | 41° |
| 2026-05-07 21:10 | 34.81630 | 33.55317 | 1893 ft | 202 kts | 42° |
| 2026-05-07 21:10 | 34.82568 | 33.56525 | 1525 ft | 192 kts | 44° |
| 2026-05-07 21:10 | 34.83463 | 33.57719 | 1124 ft | 191 kts | 45° |
| 2026-05-07 21:11 | 34.84358 | 33.58881 | 752 ft | 185 kts | 43° |
| 2026-05-07 21:11 | 34.85269 | 33.59936 | 389 ft | 177 kts | 39° |
| 2026-05-07 21:11 | 34.87003 | 33.61925 | 26 ft | 148 kts | 43° |
| 2026-05-07 21:12 | 34.87445 | 33.62475 | 23 ft | 41 kts | 45° |
| 2026-05-07 21:12 | 34.87637 | 33.62716 | 24 ft | 39 kts | 47° |
| 2026-05-07 21:12 | 34.87817 | 33.62917 | 25 ft | 13 kts | 13° |
| 2026-05-07 21:12 | 34.87875 | 33.62881 | 25 ft | 10 kts | 319° |
| 2026-05-07 21:13 | 34.87932 | 33.62817 | 24 ft | 12 kts | 316° |
| 2026-05-07 21:13 | 34.87951 | 33.62731 | 23 ft | 11 kts | 253° |
| 2026-05-07 21:13 | 34.87899 | 33.62678 | 25 ft | 9 kts | 212° |
| 2026-05-07 21:13 | 34.87862 | 33.62631 | 24 ft | 8 kts | 231° |
| 2026-05-07 21:14 | 34.87825 | 33.62580 | 23 ft | 8 kts | 226° |
| 2026-05-07 21:14 | 34.87781 | 33.62529 | 23 ft | 9 kts | 224° |
| 2026-05-07 21:14 | 34.87735 | 33.62473 | 24 ft | 10 kts | 226° |
| 2026-05-07 21:14 | 34.87686 | 33.62414 | 23 ft | 10 kts | 224° |
| 2026-05-07 21:15 | 34.87635 | 33.62351 | 23 ft | 11 kts | 226° |
| 2026-05-07 21:15 | 34.87580 | 33.62284 | 23 ft | 11 kts | 225° |
| 2026-05-07 21:15 | 34.87522 | 33.62214 | 23 ft | 12 kts | 224° |
| 2026-05-07 21:15 | 34.87512 | 33.62126 | 25 ft | 12 kts | 298° |
| 2026-05-07 21:16 | 34.87496 | 33.62042 | 24 ft | 11 kts | 229° |
| 2026-05-07 21:16 | 34.87442 | 33.61972 | 23 ft | 12 kts | 225° |
| 2026-05-07 21:16 | 34.87383 | 33.61904 | 23 ft | 12 kts | 225° |
| 2026-05-07 21:16 | 34.87324 | 33.61831 | 24 ft | 12 kts | 225° |
| 2026-05-07 21:17 | 34.87259 | 33.61752 | 23 ft | 17 kts | 225° |
| 2026-05-07 21:17 | 34.87143 | 33.61609 | 23 ft | 25 kts | 224° |
| 2026-05-07 21:17 | 34.87020 | 33.61459 | 23 ft | 23 kts | 224° |
| 2026-05-07 21:17 | 34.86955 | 33.61379 | 23 ft | 6 kts | 226° |
| 2026-05-07 21:18 | 34.86936 | 33.61331 | 23 ft | 7 kts | 267° |
| 2026-05-07 21:18 | 34.86958 | 33.61284 | 24 ft | 7 kts | 313° |
| 2026-05-07 21:18 | 34.86990 | 33.61239 | 24 ft | 7 kts | 289° |
| 2026-05-07 21:18 | 34.86976 | 33.61185 | 23 ft | 7 kts | 238° |
| 2026-05-07 21:19 | 34.86949 | 33.61143 | 23 ft | 0 kts | 230° |
| 2026-05-07 21:19 | 34.86948 | 33.61142 | 23 ft | 1 kts | 230° |